Airfield :
LOGIN :

Register | Disclaimer

   EN    FR    IT 

 










Legend :    VFR   Marginal VFR   IFR   Intensive IFR   Very Intensive IFR
Visi :
Ceiling :
>= 8 km
>= 3000ft
5 to 8 km
1000 to 3000 ft
1500m to 5 km
500 to 1000 ft
800 to 1500m
200 to 500 ft
< 800m
< 200 ft
Symbols :   Thunderstorms  Fog  Heavy snow  Heavy precipitations  Wind > 20 kt
SIGMETs :     Misc.  Thunderstorms  Icing  Turbulence  Mountain Waves  Volcanic Ashes







- Airport Elevation : 16 ft
- IATA code : EAS


LESO - San Sebastian Fuenterrabia

CURRENT METAR :
  • 180000Z AUTO 17004KT 9000 FEW055 16/14 Q1025

EXPIRED METARs :
  • 172330Z AUTO 18004KT 150V230 9999 FEW041 16/14 Q1025
  • 172300Z AUTO 21003KT 160V280 9999 FEW050 17/14 Q1025
  • 172230Z AUTO 17003KT 9999 FEW042 SCT050 17/14 Q1025
  • 172200Z AUTO 16004KT 110V210 9999 FEW038/// SCT048/// 18/14 Q1025
  • 172130Z AUTO 33003KT 250V060 9999 NCD 20/12 Q1025

TAF TAF LESO
Valid from the 18 at 00:00 until the 19 at 00:00 UTC


172300Z 1800/1824 20003KT 9999 SCT040 TX24/1814Z TN14/1805Z
TEMPO 1811/1820 01010KT
No reported NOTAMs for that airfield.



MET'MAP, your aeronautical weather chart ! - Copyright ORBIFLY December 2007 - Disclaimer

ORBIFLY MET'MAP TEAM :

Programming & Development : Alexandra Zaïnal
Concept & Development : Baudouin d'Aumeries
Co-Development & Prog : Marc-Olivier Méhu
Technical & hardware support : Manuel Goepfert

Contact : metmap@orbifly.com




SOURCES & CREDITS :

   NOAA